Time;durP1;ratioP1;P1;durP2;ratioP2;P2;SDS_P1;SDS_P2;PMS_P1;PMS_P2;Temp;Humidity;BMP_temperature;BMP_pressure;BME280_temperature;BME280_humidity;BME280_pressure;Samples;Min_cycle;Max_cycle;Signal;HPM_P1;HPM_P2
2020/12/23 00:01:57;;;;;;;7.23;0.90;;;;;;;;;;5078469;28;20436;-83
2020/12/23 00:04:23;;;;;;;1.37;1.00;;;;;;;;;;5078820;28;20428;-82
2020/12/23 00:06:49;;;;;;;1.60;0.93;;;;;;;;;;5079775;28;20408;-83
2020/12/23 00:09:15;;;;;;;1.60;0.90;;;;;;;;;;5065940;28;20524;-83
2020/12/23 00:11:41;;;;;;;1.67;1.10;;;;;;;;;;5058693;28;20977;-83
2020/12/23 00:14:07;;;;;;;1.87;0.90;;;;;;;;;;5070085;28;20437;-83
2020/12/23 00:16:33;;;;;;;2.70;0.90;;;;;;;;;;5078707;28;20409;-83
2020/12/23 00:18:59;;;;;;;1.80;1.07;;;;;;;;;;5074301;28;20433;-83
2020/12/23 00:21:25;;;;;;;1.83;0.93;;;;;;;;;;5074723;28;20415;-83
2020/12/23 00:23:51;;;;;;;1.67;0.90;;;;;;;;;;5082677;28;20452;-83
2020/12/23 00:26:17;;;;;;;1.70;1.13;;;;;;;;;;5099832;28;20412;-83
2020/12/23 00:28:43;;;;;;;1.50;0.87;;;;;;;;;;5091887;28;20425;-82
2020/12/23 00:31:08;;;;;;;1.67;1.00;;;;;;;;;;5079582;28;20420;-83
2020/12/23 00:33:34;;;;;;;2.23;1.20;;;;;;;;;;5076028;28;20453;-83
2020/12/23 00:36:01;;;;;;;1.23;0.80;;;;;;;;;;5067104;28;20429;-83
2020/12/23 00:38:27;;;;;;;1.50;0.80;;;;;;;;;;5076744;28;20792;-83
2020/12/23 00:40:53;;;;;;;1.60;1.00;;;;;;;;;;5097503;28;20447;-83
2020/12/23 00:43:19;;;;;;;1.60;0.90;;;;;;;;;;5093703;28;20439;-82
2020/12/23 00:45:45;;;;;;;1.40;0.90;;;;;;;;;;5100214;28;20488;-83
2020/12/23 00:48:11;;;;;;;1.30;0.80;;;;;;;;;;5096523;28;20458;-83
2020/12/23 00:50:37;;;;;;;1.67;1.20;;;;;;;;;;5098859;28;20897;-83
2020/12/23 00:53:03;;;;;;;1.50;0.90;;;;;;;;;;5099149;28;20420;-82
2020/12/23 00:55:28;;;;;;;1.87;1.07;;;;;;;;;;5076581;28;20429;-80
2020/12/23 00:57:54;;;;;;;1.40;0.80;;;;;;;;;;5077202;28;20421;-83
2020/12/23 01:00:20;;;;;;;1.40;0.80;;;;;;;;;;5089116;28;20457;-82
2020/12/23 01:02:46;;;;;;;1.40;0.80;;;;;;;;;;5087226;28;20424;-82
2020/12/23 01:05:12;;;;;;;1.70;1.17;;;;;;;;;;5107259;28;20432;-81
2020/12/23 01:07:38;;;;;;;1.30;0.70;;;;;;;;;;5099413;28;20409;-81
2020/12/23 01:10:04;;;;;;;1.43;0.90;;;;;;;;;;5099622;28;20505;-83
2020/12/23 01:12:30;;;;;;;1.37;0.80;;;;;;;;;;5100658;28;20767;-81
2020/12/23 01:14:56;;;;;;;1.50;0.87;;;;;;;;;;5097431;28;20427;-83
2020/12/23 01:17:22;;;;;;;1.70;1.00;;;;;;;;;;5099884;28;20484;-80
2020/12/23 01:19:48;;;;;;;1.70;1.00;;;;;;;;;;5099653;28;20479;-81
2020/12/23 01:22:14;;;;;;;1.40;0.77;;;;;;;;;;5098165;28;20416;-84
2020/12/23 01:24:40;;;;;;;1.67;1.10;;;;;;;;;;5099417;28;20424;-81
2020/12/23 01:27:06;;;;;;;1.60;1.00;;;;;;;;;;5101496;28;20495;-81
2020/12/23 01:29:32;;;;;;;1.70;1.00;;;;;;;;;;5101801;28;20431;-82
2020/12/23 01:31:58;;;;;;;2.27;0.90;;;;;;;;;;5104474;28;20426;-82
2020/12/23 01:34:24;;;;;;;1.70;0.90;;;;;;;;;;5087323;28;20456;-79
2020/12/23 01:36:50;;;;;;;1.60;0.90;;;;;;;;;;5079504;28;20404;-80
2020/12/23 01:39:16;;;;;;;1.50;1.40;;;;;;;;;;5086546;28;20463;-83
2020/12/23 01:41:42;;;;;;;1.20;0.80;;;;;;;;;;5087413;28;20405;-80
2020/12/23 01:44:09;;;;;;;1.30;0.80;;;;;;;;;;5077832;28;20417;-83
2020/12/23 01:46:35;;;;;;;3.03;1.00;;;;;;;;;;5078632;28;20425;-83
2020/12/23 01:49:06;;;;;;;1.50;0.90;;;;;;;;;;5079995;28;20417;-83
2020/12/23 01:51:33;;;;;;;1.20;0.70;;;;;;;;;;5077416;28;20404;-83
2020/12/23 01:54:00;;;;;;;1.80;1.00;;;;;;;;;;5085724;28;20461;-83
2020/12/23 01:56:26;;;;;;;1.53;0.90;;;;;;;;;;5099886;28;20495;-83
2020/12/23 01:58:52;;;;;;;1.40;0.90;;;;;;;;;;5100088;28;20423;-83
2020/12/23 02:01:20;;;;;;;1.30;0.70;;;;;;;;;;5102392;28;20452;-83
2020/12/23 02:03:46;;;;;;;1.20;0.70;;;;;;;;;;5093495;28;20446;-83
2020/12/23 02:06:12;;;;;;;1.30;0.80;;;;;;;;;;5061003;28;20402;-83
2020/12/23 02:08:40;;;;;;;1.83;0.97;;;;;;;;;;5064887;28;20434;-82
2020/12/23 02:11:06;;;;;;;1.20;0.70;;;;;;;;;;5100049;28;20432;-82
2020/12/23 02:13:36;;;;;;;1.40;0.90;;;;;;;;;;5120026;22;20487;-80
2020/12/23 02:16:03;;;;;;;1.40;0.87;;;;;;;;;;5101141;27;20423;-79
2020/12/23 02:18:29;;;;;;;1.60;0.93;;;;;;;;;;5099135;28;20392;-81
2020/12/23 02:20:55;;;;;;;1.93;1.00;;;;;;;;;;5123033;27;20485;-80
2020/12/23 02:23:21;;;;;;;1.40;1.00;;;;;;;;;;5099593;28;20553;-79
2020/12/23 02:25:47;;;;;;;1.50;0.80;;;;;;;;;;5079713;28;20425;-79
2020/12/23 02:28:13;;;;;;;1.50;1.10;;;;;;;;;;5079266;28;20423;-80
2020/12/23 02:30:39;;;;;;;1.43;1.00;;;;;;;;;;5114762;28;20439;-80
2020/12/23 02:33:05;;;;;;;1.77;1.00;;;;;;;;;;5119711;28;20502;-79
2020/12/23 02:35:31;;;;;;;1.53;0.90;;;;;;;;;;5118557;28;20419;-79
2020/12/23 02:37:57;;;;;;;1.90;1.00;;;;;;;;;;5119776;28;20499;-79
2020/12/23 02:40:23;;;;;;;2.73;1.13;;;;;;;;;;5105265;28;20467;-80
2020/12/23 02:42:49;;;;;;;1.40;0.80;;;;;;;;;;5099256;28;20435;-79
2020/12/23 02:45:15;;;;;;;1.60;0.90;;;;;;;;;;5097826;28;20435;-80
2020/12/23 02:47:41;;;;;;;1.40;0.90;;;;;;;;;;5097085;28;20427;-79
2020/12/23 02:50:07;;;;;;;1.60;1.00;;;;;;;;;;5097643;28;20526;-79
2020/12/23 02:52:34;;;;;;;2.40;1.20;;;;;;;;;;5099407;28;20407;-79
2020/12/23 02:55:00;;;;;;;1.40;1.00;;;;;;;;;;5104162;28;20420;-80
2020/12/23 02:57:26;;;;;;;1.43;0.90;;;;;;;;;;5119340;28;20531;-80
2020/12/23 02:59:52;;;;;;;1.67;1.00;;;;;;;;;;5089228;28;20537;-80
2020/12/23 03:02:17;;;;;;;1.53;1.00;;;;;;;;;;5094807;28;20500;-79
2020/12/23 03:04:43;;;;;;;1.53;1.00;;;;;;;;;;5098937;28;20483;-82
2020/12/23 03:07:09;;;;;;;1.37;0.77;;;;;;;;;;5118668;28;20510;-79
2020/12/23 03:09:35;;;;;;;1.40;0.90;;;;;;;;;;5119751;28;20475;-79
2020/12/23 03:12:01;;;;;;;1.40;1.00;;;;;;;;;;5117289;28;20458;-79
2020/12/23 03:14:27;;;;;;;2.43;0.93;;;;;;;;;;5119600;28;20436;-80
2020/12/23 03:16:53;;;;;;;3.10;1.10;;;;;;;;;;5100633;28;20419;-80
2020/12/23 03:19:19;;;;;;;2.27;1.10;;;;;;;;;;5119344;28;20813;-80
2020/12/23 03:21:45;;;;;;;2.50;1.50;;;;;;;;;;5115630;28;20420;-79
2020/12/23 03:24:11;;;;;;;2.30;1.60;;;;;;;;;;5101172;28;20406;-78
2020/12/23 03:26:37;;;;;;;2.40;1.50;;;;;;;;;;5117250;28;20427;-79
2020/12/23 03:29:03;;;;;;;2.20;1.73;;;;;;;;;;5118973;28;20395;-79
2020/12/23 03:31:29;;;;;;;3.77;2.20;;;;;;;;;;5117133;28;20837;-78
2020/12/23 03:33:56;;;;;;;4.53;2.07;;;;;;;;;;5116321;28;20423;-80
2020/12/23 03:36:22;;;;;;;3.07;2.13;;;;;;;;;;5077776;28;20951;-78
2020/12/23 03:38:49;;;;;;;2.60;1.93;;;;;;;;;;5078522;28;20499;-78
2020/12/23 03:41:16;;;;;;;2.83;1.77;;;;;;;;;;5069828;28;20452;-79
2020/12/23 03:43:42;;;;;;;2.63;1.80;;;;;;;;;;5080470;28;20426;-79
2020/12/23 03:46:08;;;;;;;2.47;1.47;;;;;;;;;;5106803;28;20419;-79
2020/12/23 03:48:34;;;;;;;3.23;1.13;;;;;;;;;;5118393;28;20392;-79
2020/12/23 03:51:00;;;;;;;2.90;1.27;;;;;;;;;;5101758;28;20463;-79
2020/12/23 03:53:26;;;;;;;2.07;1.43;;;;;;;;;;5099508;28;20427;-79
2020/12/23 03:55:52;;;;;;;1.60;1.17;;;;;;;;;;5110422;28;20464;-79
2020/12/23 03:58:18;;;;;;;1.40;0.83;;;;;;;;;;5098822;28;20412;-79
2020/12/23 04:00:44;;;;;;;2.17;1.20;;;;;;;;;;5103069;28;20462;-79
2020/12/23 04:03:10;;;;;;;2.57;1.10;;;;;;;;;;5119216;28;20764;-79
2020/12/23 04:05:37;;;;;;;1.67;1.00;;;;;;;;;;5113898;28;20507;-78
2020/12/23 04:08:03;;;;;;;1.60;0.90;;;;;;;;;;5098473;28;20404;-78
2020/12/23 04:10:29;;;;;;;1.80;0.90;;;;;;;;;;5100475;28;20805;-79
2020/12/23 04:12:56;;;;;;;1.40;0.80;;;;;;;;;;5118526;28;20445;-79
2020/12/23 04:15:22;;;;;;;1.30;0.90;;;;;;;;;;5113707;28;20455;-79
2020/12/23 04:17:48;;;;;;;2.37;1.23;;;;;;;;;;5077966;28;20436;-79
2020/12/23 04:20:14;;;;;;;2.40;1.30;;;;;;;;;;5077554;28;20464;-80
2020/12/23 04:22:40;;;;;;;1.90;1.10;;;;;;;;;;5098234;28;20783;-79
2020/12/23 04:25:07;;;;;;;1.87;1.17;;;;;;;;;;5098016;28;20403;-78
2020/12/23 04:27:33;;;;;;;1.43;0.90;;;;;;;;;;5115703;28;20442;-78
2020/12/23 04:29:59;;;;;;;1.40;0.87;;;;;;;;;;5118535;28;20436;-79
2020/12/23 04:32:25;;;;;;;2.97;0.87;;;;;;;;;;5115872;28;20439;-78
2020/12/23 04:34:51;;;;;;;2.40;1.10;;;;;;;;;;5117813;28;20463;-78
2020/12/23 04:37:17;;;;;;;1.67;1.10;;;;;;;;;;5098040;28;20433;-78
2020/12/23 04:39:43;;;;;;;1.40;0.97;;;;;;;;;;5097461;28;20468;-78
2020/12/23 04:42:09;;;;;;;1.40;0.80;;;;;;;;;;5079608;28;20430;-78
2020/12/23 04:44:36;;;;;;;1.50;0.80;;;;;;;;;;5092631;28;20501;-78
2020/12/23 04:47:03;;;;;;;1.20;0.70;;;;;;;;;;5097220;28;20518;-78
2020/12/23 04:49:34;;;;;;;1.30;0.80;;;;;;;;;;5097405;28;20943;-78
2020/12/23 04:52:00;;;;;;;1.70;0.90;;;;;;;;;;5096207;28;20428;-78
2020/12/23 04:54:26;;;;;;;1.40;0.80;;;;;;;;;;5099620;28;20420;-78
2020/12/23 04:56:52;;;;;;;1.90;1.10;;;;;;;;;;5110439;28;20435;-79
2020/12/23 04:59:18;;;;;;;2.60;1.20;;;;;;;;;;5096993;28;20458;-79
2020/12/23 05:01:44;;;;;;;1.90;1.17;;;;;;;;;;5103641;28;20420;-79
2020/12/23 05:04:10;;;;;;;2.80;1.40;;;;;;;;;;5094767;28;20423;-79
2020/12/23 05:06:37;;;;;;;1.40;0.80;;;;;;;;;;5102330;28;20422;-78
2020/12/23 05:09:06;;;;;;;4.63;0.87;;;;;;;;;;5114987;28;20427;-79
2020/12/23 05:11:33;;;;;;;1.30;0.70;;;;;;;;;;5113846;28;20950;-79
2020/12/23 05:14:04;;;;;;;1.30;0.70;;;;;;;;;;5115002;28;20435;-79
2020/12/23 05:16:30;;;;;;;1.40;1.03;;;;;;;;;;5084300;28;20463;-78
2020/12/23 05:18:57;;;;;;;1.37;0.80;;;;;;;;;;5087271;28;20405;-79
2020/12/23 05:21:23;;;;;;;4.60;1.10;;;;;;;;;;5080602;28;20972;-78
2020/12/23 05:23:49;;;;;;;2.00;1.37;;;;;;;;;;5094522;28;20780;-79
2020/12/23 05:26:16;;;;;;;1.60;0.90;;;;;;;;;;5076969;28;20433;-79
2020/12/23 05:28:42;;;;;;;1.70;0.93;;;;;;;;;;5118827;28;20406;-79
2020/12/23 05:31:10;;;;;;;1.70;1.00;;;;;;;;;;5113211;28;20512;-79
2020/12/23 05:33:37;;;;;;;7.83;1.30;;;;;;;;;;5097992;28;20600;-79
2020/12/23 05:36:03;;;;;;;1.30;0.80;;;;;;;;;;5095161;28;20432;-78
2020/12/23 05:38:30;;;;;;;1.33;0.90;;;;;;;;;;5078003;28;20412;-78
2020/12/23 05:40:57;;;;;;;2.13;0.93;;;;;;;;;;5077572;28;20548;-78
2020/12/23 05:43:23;;;;;;;1.53;0.97;;;;;;;;;;5078060;28;20397;-79
2020/12/23 05:45:52;;;;;;;1.50;0.90;;;;;;;;;;5075043;28;20773;-79
2020/12/23 05:48:18;;;;;;;5.00;1.00;;;;;;;;;;5102157;28;20398;-79
2020/12/23 05:50:45;;;;;;;1.70;1.10;;;;;;;;;;5104152;28;20457;-81
2020/12/23 05:53:15;;;;;;;1.43;0.90;;;;;;;;;;5125942;28;20422;-78
2020/12/23 05:55:47;;;;;;;1.77;0.97;;;;;;;;;;5128648;28;20399;-79
2020/12/23 05:58:49;;;;;;;2.70;0.87;;;;;;;;;;5128877;28;20415;-78
2020/12/23 06:01:20;;;;;;;1.87;0.90;;;;;;;;;;5058900;28;20499;-78
2020/12/23 06:03:55;;;;;;;1.90;1.00;;;;;;;;;;5066409;28;20416;-77
2020/12/23 06:06:25;;;;;;;1.77;1.00;;;;;;;;;;5107013;28;20438;-78
2020/12/23 06:08:52;;;;;;;4.13;1.87;;;;;;;;;;5137261;28;20407;-77
2020/12/23 06:11:28;;;;;;;4.90;1.90;;;;;;;;;;5131712;28;20440;-78
2020/12/23 06:13:57;;;;;;;2.90;1.43;;;;;;;;;;5122056;28;20425;-78
2020/12/23 06:16:52;;;;;;;2.33;1.30;;;;;;;;;;5121572;28;20427;-78
2020/12/23 06:19:21;;;;;;;3.10;1.70;;;;;;;;;;5110564;28;20434;-79
2020/12/23 06:21:47;;;;;;;2.83;1.50;;;;;;;;;;5123126;28;20419;-79
2020/12/23 06:24:14;;;;;;;3.10;1.30;;;;;;;;;;5124914;28;20395;-79
2020/12/23 06:26:41;;;;;;;4.83;1.53;;;;;;;;;;5111027;28;20429;-78
2020/12/23 06:29:08;;;;;;;3.83;1.90;;;;;;;;;;5082996;28;20401;-78
2020/12/23 06:31:51;;;;;;;2.30;1.13;;;;;;;;;;5091791;28;20444;-79
2020/12/23 06:34:22;;;;;;;3.10;1.47;;;;;;;;;;5122491;28;20384;-78
2020/12/23 06:36:49;;;;;;;1.60;1.10;;;;;;;;;;5108833;28;20509;-78
2020/12/23 06:39:20;;;;;;;3.00;1.30;;;;;;;;;;5118622;28;20587;-79
2020/12/23 06:41:47;;;;;;;2.50;1.37;;;;;;;;;;5107461;28;20508;-79
2020/12/23 06:44:23;;;;;;;5.13;1.13;;;;;;;;;;5121906;22;20490;-86
2020/12/23 06:47:08;;;;;;;2.47;1.03;;;;;;;;;;5139008;27;20920;-86
2020/12/23 06:49:55;;;;;;;1.80;1.10;;;;;;;;;;5138250;27;20768;-86
2020/12/23 06:54:53;;;;;;;2.63;1.40;;;;;;;;;;5097286;22;20561;-75
2020/12/23 06:57:37;;;;;;;2.90;1.47;;;;;;;;;;5077214;28;20904;-75
2020/12/23 07:00:03;;;;;;;3.73;1.70;;;;;;;;;;5095059;28;20491;-74
2020/12/23 07:02:32;;;;;;;1.67;1.10;;;;;;;;;;5071573;28;20832;-76
2020/12/23 07:04:59;;;;;;;1.83;1.30;;;;;;;;;;5073508;28;20409;-74
2020/12/23 07:07:35;;;;;;;2.20;1.50;;;;;;;;;;5060974;28;20967;-75
2020/12/23 07:10:19;;;;;;;2.60;1.43;;;;;;;;;;5074654;28;20430;-76
2020/12/23 07:12:48;;;;;;;2.10;1.43;;;;;;;;;;5074437;28;20425;-75
2020/12/23 07:15:15;;;;;;;2.80;1.83;;;;;;;;;;5092371;28;20501;-75
2020/12/23 07:17:44;;;;;;;2.30;1.30;;;;;;;;;;5079457;28;20421;-74
2020/12/23 07:20:12;;;;;;;1.80;1.10;;;;;;;;;;5074206;28;20597;-74
2020/12/23 07:22:38;;;;;;;1.67;1.10;;;;;;;;;;5063843;28;20414;-77
2020/12/23 07:25:05;;;;;;;1.93;1.20;;;;;;;;;;5066778;28;20496;-77
2020/12/23 07:27:32;;;;;;;1.70;1.20;;;;;;;;;;5074043;28;20917;-78
2020/12/23 07:30:05;;;;;;;3.73;1.43;;;;;;;;;;5081838;28;20524;-74
2020/12/23 07:32:31;;;;;;;2.67;1.80;;;;;;;;;;5083047;28;20492;-76
2020/12/23 07:34:59;;;;;;;2.40;1.60;;;;;;;;;;5088752;28;20453;-75
2020/12/23 07:37:27;;;;;;;3.20;1.67;;;;;;;;;;5084025;28;20455;-75
2020/12/23 07:39:53;;;;;;;2.37;1.57;;;;;;;;;;5088201;28;20875;-77
2020/12/23 07:42:20;;;;;;;3.33;2.00;;;;;;;;;;5073367;28;20515;-75
2020/12/23 07:44:50;;;;;;;2.10;1.40;;;;;;;;;;5088027;28;20416;-75
2020/12/23 07:47:21;;;;;;;4.60;1.70;;;;;;;;;;5077039;28;20434;-76
2020/12/23 07:49:57;;;;;;;1.90;1.33;;;;;;;;;;5072865;28;20452;-77
2020/12/23 07:52:23;;;;;;;2.80;1.40;;;;;;;;;;5085159;28;20430;-78
2020/12/23 07:54:49;;;;;;;2.60;1.27;;;;;;;;;;5079329;28;20781;-78
2020/12/23 07:57:28;;;;;;;2.37;1.40;;;;;;;;;;5073191;28;20409;-78
2020/12/23 08:00:00;;;;;;;3.10;1.40;;;;;;;;;;5073720;28;20985;-78
2020/12/23 08:02:26;;;;;;;3.67;1.80;;;;;;;;;;5089253;28;20429;-81
2020/12/23 08:04:52;;;;;;;1.70;1.03;;;;;;;;;;5076950;28;20419;-75
2020/12/23 08:07:22;;;;;;;1.97;1.30;;;;;;;;;;5080492;28;20452;-75
2020/12/23 08:09:48;;;;;;;2.10;1.17;;;;;;;;;;5073905;28;20424;-72
2020/12/23 08:12:17;;;;;;;4.07;1.30;;;;;;;;;;5073183;28;20397;-72
2020/12/23 08:14:44;;;;;;;2.13;1.30;;;;;;;;;;5126438;22;20471;-67
2020/12/23 08:17:10;;;;;;;3.70;1.73;;;;;;;;;;5114336;27;20403;-67
2020/12/23 08:19:36;;;;;;;2.53;1.43;;;;;;;;;;5112981;28;20447;-64
2020/12/23 08:22:11;;;;;;;2.83;1.60;;;;;;;;;;5111666;28;20468;-64
2020/12/23 08:24:37;;;;;;;2.47;1.57;;;;;;;;;;5093623;28;20420;-64
2020/12/23 08:27:03;;;;;;;2.00;1.63;;;;;;;;;;5093274;28;20406;-64
2020/12/23 08:29:30;;;;;;;3.70;2.03;;;;;;;;;;5113523;28;20441;-64
2020/12/23 08:31:56;;;;;;;2.90;1.80;;;;;;;;;;5113709;28;20392;-64
2020/12/23 08:34:24;;;;;;;2.90;1.77;;;;;;;;;;5112846;28;20518;-64
2020/12/23 08:36:53;;;;;;;2.57;1.53;;;;;;;;;;5113698;28;20399;-64
2020/12/23 08:39:26;;;;;;;2.60;1.60;;;;;;;;;;5111981;28;20506;-64
2020/12/23 08:41:52;;;;;;;2.90;1.50;;;;;;;;;;5113422;28;20396;-64
2020/12/23 08:44:23;;;;;;;2.30;1.43;;;;;;;;;;5112632;28;20530;-64
2020/12/23 08:46:49;;;;;;;1.90;1.27;;;;;;;;;;5113437;28;20402;-64
2020/12/23 08:49:16;;;;;;;3.70;1.67;;;;;;;;;;5109631;28;21433;-64
2020/12/23 08:51:42;;;;;;;2.80;1.90;;;;;;;;;;5113124;28;20904;-64
2020/12/23 08:54:17;;;;;;;2.70;1.57;;;;;;;;;;5112574;28;20962;-64
2020/12/23 08:56:49;;;;;;;2.60;1.70;;;;;;;;;;5093637;28;20464;-63
2020/12/23 08:59:15;;;;;;;2.63;1.80;;;;;;;;;;5111651;28;20854;-64
2020/12/23 09:01:45;;;;;;;4.70;2.70;;;;;;;;;;5114656;28;20438;-64
2020/12/23 09:04:12;;;;;;;3.00;1.73;;;;;;;;;;5114238;27;21072;-64
2020/12/23 09:06:47;;;;;;;2.70;1.60;;;;;;;;;;5102600;28;20425;-63
2020/12/23 09:09:23;;;;;;;2.30;1.50;;;;;;;;;;5111704;28;20420;-65
2020/12/23 09:11:52;;;;;;;2.80;2.00;;;;;;;;;;5114581;28;20413;-66
2020/12/23 09:14:41;;;;;;;5.47;2.80;;;;;;;;;;5112171;27;20870;-66
2020/12/23 09:17:07;;;;;;;2.87;1.53;;;;;;;;;;5105217;28;20407;-64
2020/12/23 09:19:49;;;;;;;2.83;1.50;;;;;;;;;;5113749;27;20446;-64
2020/12/23 09:22:24;;;;;;;3.57;1.50;;;;;;;;;;5114946;28;20414;-65
2020/12/23 09:24:51;;;;;;;2.27;1.57;;;;;;;;;;5115397;28;20431;-64
2020/12/23 09:27:24;;;;;;;3.10;1.70;;;;;;;;;;5114761;28;20419;-65
2020/12/23 09:29:50;;;;;;;4.97;1.23;;;;;;;;;;5113699;27;20472;-65
2020/12/23 09:32:17;;;;;;;3.03;1.70;;;;;;;;;;5113910;28;20812;-64
2020/12/23 09:34:43;;;;;;;3.43;1.83;;;;;;;;;;5108415;28;20577;-66
2020/12/23 09:37:10;;;;;;;3.40;1.70;;;;;;;;;;5113330;28;20760;-62
2020/12/23 09:39:36;;;;;;;6.13;1.57;;;;;;;;;;5109650;28;20458;-63
2020/12/23 09:42:03;;;;;;;2.20;1.40;;;;;;;;;;5112286;28;20487;-66
2020/12/23 09:44:29;;;;;;;2.47;1.73;;;;;;;;;;5114235;27;20439;-66
2020/12/23 09:46:56;;;;;;;1.53;1.17;;;;;;;;;;5101600;27;20473;-64
2020/12/23 09:49:21;;;;;;;2.60;1.37;;;;;;;;;;5110170;28;20460;-64
2020/12/23 09:51:51;;;;;;;1.80;1.60;;;;;;;;;;5110284;27;20427;-65
2020/12/23 09:54:17;;;;;;;3.17;1.30;;;;;;;;;;5113663;28;20451;-64
2020/12/23 09:56:50;;;;;;;3.70;1.73;;;;;;;;;;5114815;28;20453;-65
2020/12/23 09:59:16;;;;;;;4.53;2.10;;;;;;;;;;5112113;28;20415;-64
2020/12/23 10:01:43;;;;;;;5.20;2.30;;;;;;;;;;5115703;28;20741;-65
2020/12/23 10:04:09;;;;;;;6.00;1.93;;;;;;;;;;5113835;27;20530;-64
2020/12/23 10:06:35;;;;;;;3.80;1.93;;;;;;;;;;5115898;28;21145;-63
2020/12/23 10:09:01;;;;;;;3.07;1.80;;;;;;;;;;5115088;28;20438;-65
2020/12/23 10:11:27;;;;;;;2.63;1.63;;;;;;;;;;5116072;28;20407;-64
2020/12/23 10:13:53;;;;;;;7.43;1.87;;;;;;;;;;5107688;28;20914;-65
2020/12/23 10:16:19;;;;;;;3.57;2.10;;;;;;;;;;5114384;28;20414;-64
2020/12/23 10:18:45;;;;;;;6.47;2.57;;;;;;;;;;5112938;27;20427;-65
2020/12/23 10:21:11;;;;;;;6.83;2.43;;;;;;;;;;5114624;28;21310;-66
2020/12/23 10:23:37;;;;;;;6.00;2.13;;;;;;;;;;5113880;27;20522;-63
2020/12/23 10:26:03;;;;;;;6.77;1.70;;;;;;;;;;5114755;28;20415;-64
2020/12/23 10:28:29;;;;;;;2.93;1.77;;;;;;;;;;5113659;28;20899;-64
2020/12/23 10:30:56;;;;;;;2.80;1.43;;;;;;;;;;5114308;28;20482;-63
2020/12/23 10:33:22;;;;;;;2.50;1.87;;;;;;;;;;5111458;28;20451;-63
2020/12/23 10:35:48;;;;;;;3.30;2.07;;;;;;;;;;5109596;28;20472;-65
2020/12/23 10:38:14;;;;;;;4.60;1.97;;;;;;;;;;5112479;27;21246;-64
2020/12/23 10:40:40;;;;;;;2.90;1.90;;;;;;;;;;5114745;28;20496;-65
2020/12/23 10:43:07;;;;;;;7.00;2.30;;;;;;;;;;5111516;28;20427;-64
2020/12/23 10:45:33;;;;;;;11.40;5.80;;;;;;;;;;5104003;28;20782;-63
2020/12/23 10:47:59;;;;;;;4.80;2.80;;;;;;;;;;5110138;28;20403;-64
2020/12/23 10:50:25;;;;;;;3.00;2.17;;;;;;;;;;5113655;28;20441;-63
2020/12/23 10:52:51;;;;;;;2.80;2.00;;;;;;;;;;5110751;27;20431;-64
2020/12/23 10:55:17;;;;;;;3.50;1.93;;;;;;;;;;5113318;28;20471;-63
2020/12/23 10:57:43;;;;;;;2.87;1.87;;;;;;;;;;5113510;28;20404;-62
2020/12/23 11:00:09;;;;;;;4.40;1.57;;;;;;;;;;5112585;28;20450;-62
2020/12/23 11:02:35;;;;;;;4.50;1.50;;;;;;;;;;5113256;28;20403;-63
2020/12/23 11:05:01;;;;;;;3.90;1.90;;;;;;;;;;5111841;28;20449;-64
2020/12/23 11:07:27;;;;;;;3.60;2.33;;;;;;;;;;5112939;28;20404;-62
2020/12/23 11:09:53;;;;;;;4.10;1.93;;;;;;;;;;5112231;27;20419;-62
2020/12/23 11:12:19;;;;;;;6.97;1.57;;;;;;;;;;5113795;28;20403;-63
2020/12/23 11:14:46;;;;;;;4.83;3.63;;;;;;;;;;5112803;27;20938;-62
2020/12/23 11:17:13;;;;;;;3.90;1.90;;;;;;;;;;5113783;28;20399;-62
2020/12/23 11:19:42;;;;;;;2.27;1.60;;;;;;;;;;5113347;28;20822;-64
2020/12/23 11:22:08;;;;;;;3.80;1.77;;;;;;;;;;5110986;28;20407;-64
2020/12/23 11:24:34;;;;;;;3.17;2.40;;;;;;;;;;5112186;28;20457;-63
2020/12/23 11:27:00;;;;;;;4.70;2.40;;;;;;;;;;5112863;28;20423;-62
2020/12/23 11:29:26;;;;;;;7.33;3.00;;;;;;;;;;5110543;27;20503;-64
2020/12/23 11:31:52;;;;;;;4.27;2.50;;;;;;;;;;5090923;28;20449;-64
2020/12/23 11:34:19;;;;;;;4.73;2.87;;;;;;;;;;5111084;28;20466;-64
2020/12/23 11:36:45;;;;;;;5.20;2.90;;;;;;;;;;5106281;28;20414;-66
2020/12/23 11:39:11;;;;;;;4.40;2.80;;;;;;;;;;5103102;28;20425;-63
2020/12/23 11:41:37;;;;;;;4.43;2.20;;;;;;;;;;5111237;28;20447;-66
2020/12/23 11:44:03;;;;;;;4.63;2.53;;;;;;;;;;5112546;27;20462;-66
2020/12/23 11:46:31;;;;;;;4.20;2.50;;;;;;;;;;5113300;28;20919;-65
2020/12/23 11:48:57;;;;;;;3.87;2.40;;;;;;;;;;5112801;28;20550;-63
2020/12/23 11:51:23;;;;;;;4.43;2.20;;;;;;;;;;5112999;28;20442;-64
2020/12/23 11:53:49;;;;;;;5.03;3.20;;;;;;;;;;5110621;27;21209;-64
2020/12/23 11:56:15;;;;;;;5.03;2.80;;;;;;;;;;5111430;28;20425;-62
2020/12/23 11:58:42;;;;;;;8.87;2.60;;;;;;;;;;5112268;28;20471;-64
2020/12/23 12:01:08;;;;;;;5.73;2.50;;;;;;;;;;5113604;28;20450;-65
2020/12/23 12:03:34;;;;;;;3.87;2.17;;;;;;;;;;5093140;28;20952;-65
2020/12/23 12:06:00;;;;;;;3.97;2.30;;;;;;;;;;5113097;28;20395;-65
2020/12/23 12:08:29;;;;;;;2.93;1.63;;;;;;;;;;5104959;28;20464;-65
2020/12/23 12:10:55;;;;;;;5.23;2.80;;;;;;;;;;5112580;28;20481;-65
2020/12/23 12:13:22;;;;;;;4.33;1.87;;;;;;;;;;5112749;28;20427;-65
2020/12/23 12:15:48;;;;;;;6.97;2.83;;;;;;;;;;5113835;28;20765;-63
2020/12/23 12:18:14;;;;;;;4.20;1.83;;;;;;;;;;5112134;28;20895;-63
2020/12/23 12:20:40;;;;;;;3.30;1.60;;;;;;;;;;5112843;28;20455;-64
2020/12/23 12:23:06;;;;;;;2.63;1.40;;;;;;;;;;5103805;28;20523;-66
2020/12/23 12:25:34;;;;;;;4.53;2.07;;;;;;;;;;5109987;28;20473;-65
2020/12/23 12:28:01;;;;;;;3.17;1.60;;;;;;;;;;5113795;28;20910;-63
2020/12/23 12:30:27;;;;;;;3.20;2.00;;;;;;;;;;5112919;28;20447;-63
2020/12/23 12:32:53;;;;;;;5.10;2.13;;;;;;;;;;5112269;27;20501;-65
2020/12/23 12:35:19;;;;;;;2.90;1.47;;;;;;;;;;5112413;28;20810;-65
2020/12/23 12:37:45;;;;;;;4.27;2.80;;;;;;;;;;5112581;28;20424;-65
2020/12/23 12:40:11;;;;;;;4.47;2.00;;;;;;;;;;5112181;28;20774;-63
2020/12/23 12:42:37;;;;;;;3.10;1.57;;;;;;;;;;5113947;28;20415;-64
2020/12/23 12:45:03;;;;;;;8.83;2.33;;;;;;;;;;5113014;28;20804;-66
2020/12/23 12:47:29;;;;;;;4.00;2.40;;;;;;;;;;5112642;28;20448;-65
2020/12/23 12:49:55;;;;;;;5.00;2.60;;;;;;;;;;5111621;28;20899;-65
2020/12/23 12:52:21;;;;;;;4.00;2.67;;;;;;;;;;5111819;28;20419;-65
2020/12/23 12:54:47;;;;;;;6.17;2.97;;;;;;;;;;5100796;28;20466;-65
2020/12/23 12:57:13;;;;;;;12.73;4.13;;;;;;;;;;5111366;28;20456;-65
2020/12/23 12:59:40;;;;;;;5.30;3.00;;;;;;;;;;5111864;28;20857;-65
2020/12/23 13:02:06;;;;;;;10.20;3.00;;;;;;;;;;5112596;28;20407;-65
2020/12/23 13:04:32;;;;;;;5.50;3.70;;;;;;;;;;5115620;28;20592;-67
2020/12/23 13:07:05;;;;;;;6.20;3.00;;;;;;;;;;5112493;28;20479;-66
2020/12/23 13:09:31;;;;;;;4.73;2.60;;;;;;;;;;5110489;28;20411;-66
2020/12/23 13:12:00;;;;;;;5.07;2.80;;;;;;;;;;5098330;28;20456;-66
2020/12/23 13:14:27;;;;;;;5.50;2.60;;;;;;;;;;5107320;28;20482;-67
2020/12/23 13:16:53;;;;;;;4.37;2.50;;;;;;;;;;5111002;28;20940;-64
2020/12/23 13:19:19;;;;;;;9.37;3.80;;;;;;;;;;5109914;28;20415;-65
2020/12/23 13:21:51;;;;;;;4.83;3.00;;;;;;;;;;5109975;28;20954;-64
2020/12/23 13:24:18;;;;;;;6.10;4.47;;;;;;;;;;5107274;28;20458;-63
2020/12/23 13:26:48;;;;;;;7.03;3.43;;;;;;;;;;5111900;28;20910;-63
2020/12/23 13:29:14;;;;;;;8.60;3.87;;;;;;;;;;5111519;28;20801;-63
2020/12/23 13:31:40;;;;;;;7.70;3.60;;;;;;;;;;5112154;28;20396;-65
2020/12/23 13:34:06;;;;;;;5.80;3.50;;;;;;;;;;5111144;28;20871;-63
2020/12/23 13:36:33;;;;;;;4.70;2.70;;;;;;;;;;5112629;28;20760;-64
2020/12/23 13:38:59;;;;;;;4.03;1.90;;;;;;;;;;5107695;28;21003;-65
2020/12/23 13:41:25;;;;;;;3.20;2.00;;;;;;;;;;5111949;28;20452;-64
2020/12/23 13:43:51;;;;;;;2.47;1.77;;;;;;;;;;5111819;28;20494;-65
2020/12/23 13:46:18;;;;;;;3.60;2.13;;;;;;;;;;5111565;28;20392;-65
2020/12/23 13:48:48;;;;;;;4.07;1.90;;;;;;;;;;5112468;28;20941;-68
2020/12/23 13:51:14;;;;;;;4.40;2.07;;;;;;;;;;5114744;28;20404;-65
2020/12/23 13:53:40;;;;;;;2.60;1.77;;;;;;;;;;5115550;28;20426;-63
2020/12/23 13:56:12;;;;;;;3.13;1.73;;;;;;;;;;5114607;28;20430;-65
2020/12/23 13:58:38;;;;;;;4.70;1.70;;;;;;;;;;5110958;28;20431;-65
2020/12/23 14:01:07;;;;;;;3.40;1.90;;;;;;;;;;5114482;28;20807;-63
2020/12/23 14:03:33;;;;;;;7.80;2.20;;;;;;;;;;5115512;28;20423;-63
2020/12/23 14:06:00;;;;;;;5.30;2.07;;;;;;;;;;5112478;28;20423;-63
2020/12/23 14:08:26;;;;;;;3.33;1.90;;;;;;;;;;5116322;28;20472;-63
2020/12/23 14:10:52;;;;;;;4.97;2.73;;;;;;;;;;5115568;28;20431;-63
2020/12/23 14:13:18;;;;;;;4.13;1.90;;;;;;;;;;5116152;28;20403;-65
2020/12/23 14:15:44;;;;;;;3.27;1.43;;;;;;;;;;5116066;28;20438;-63
2020/12/23 14:18:10;;;;;;;5.90;2.80;;;;;;;;;;5116082;28;20427;-65
2020/12/23 14:20:37;;;;;;;4.17;2.70;;;;;;;;;;5115867;27;20450;-63
2020/12/23 14:23:03;;;;;;;4.10;2.20;;;;;;;;;;5116395;28;20504;-66
2020/12/23 14:25:29;;;;;;;2.93;2.07;;;;;;;;;;5115179;28;20427;-63
2020/12/23 14:27:55;;;;;;;3.20;1.30;;;;;;;;;;5116096;28;20406;-65
2020/12/23 14:30:21;;;;;;;9.97;2.37;;;;;;;;;;5115636;28;20419;-66
2020/12/23 14:32:47;;;;;;;3.10;1.83;;;;;;;;;;5111477;28;20443;-65
2020/12/23 14:35:13;;;;;;;3.93;2.23;;;;;;;;;;5114568;28;20504;-65
2020/12/23 14:37:39;;;;;;;3.00;1.63;;;;;;;;;;5115804;28;20395;-65
2020/12/23 14:40:06;;;;;;;2.43;1.70;;;;;;;;;;5114919;28;20980;-66
2020/12/23 14:42:32;;;;;;;2.73;1.60;;;;;;;;;;5116195;28;20750;-64
2020/12/23 14:44:58;;;;;;;2.10;1.33;;;;;;;;;;5113973;27;20442;-64
2020/12/23 14:47:24;;;;;;;2.97;1.63;;;;;;;;;;5115660;28;20400;-64